createdAt,value
2022-12-27T00:00:55.496Z,98810.47
2022-12-27T00:03:22.468Z,98798.50
2022-12-27T00:05:49.137Z,98813.53
2022-12-27T00:08:16.544Z,98817.88
2022-12-27T00:10:43.850Z,98822.38
2022-12-27T00:13:10.692Z,98824.34
2022-12-27T00:15:37.486Z,98823.66
2022-12-27T00:18:04.248Z,98813.22
2022-12-27T00:20:30.900Z,98828.13
2022-12-27T00:23:00.507Z,98826.72
2022-12-27T00:25:27.980Z,98829.34
2022-12-27T00:27:54.754Z,98832.03
2022-12-27T00:30:21.347Z,98831.44
2022-12-27T00:32:48.064Z,98816.44
2022-12-27T00:35:15.521Z,98838.00
2022-12-27T00:37:42.249Z,98832.91
2022-12-27T00:40:09.692Z,98836.81
2022-12-27T00:42:36.873Z,98827.28
2022-12-27T00:45:05.351Z,98844.31
2022-12-27T00:47:32.595Z,98842.56
2022-12-27T00:49:59.664Z,98854.38
2022-12-27T00:52:26.571Z,98852.75
2022-12-27T00:54:53.232Z,98851.78
2022-12-27T00:57:20.436Z,98852.00
2022-12-27T00:59:47.878Z,98857.06
2022-12-27T01:02:14.571Z,98842.09
2022-12-27T01:04:41.447Z,98863.25
2022-12-27T01:07:08.747Z,98865.63
2022-12-27T01:09:35.351Z,98841.97
2022-12-27T01:12:02.100Z,98864.78
2022-12-27T01:14:28.708Z,98864.91
2022-12-27T01:16:55.484Z,98876.63
2022-12-27T01:19:23.120Z,98869.50
2022-12-27T01:21:49.778Z,98877.69
2022-12-27T01:24:16.361Z,98886.44
2022-12-27T01:26:43.071Z,98886.31
2022-12-27T01:29:12.701Z,98887.97
2022-12-27T01:31:39.485Z,98898.25
2022-12-27T01:34:06.203Z,98889.03
2022-12-27T01:36:33.032Z,98807.50
2022-12-27T01:39:00.575Z,98901.91
2022-12-27T01:41:33.260Z,98897.28
2022-12-27T01:44:00.181Z,98896.19
2022-12-27T01:46:28.054Z,98897.59
2022-12-27T01:48:55.404Z,98910.41
2022-12-27T01:51:22.409Z,98908.88
2022-12-27T01:53:52.141Z,98912.06
2022-12-27T01:56:31.225Z,98919.59
2022-12-27T01:59:02.518Z,98915.38
2022-12-27T02:01:43.165Z,98926.13
2022-12-27T02:04:17.041Z,98932.78
2022-12-27T02:06:43.887Z,98899.28
2022-12-27T02:09:18.233Z,98938.44
2022-12-27T02:11:48.591Z,98946.50
2022-12-27T02:14:18.963Z,98949.69
2022-12-27T02:16:47.173Z,98950.16
2022-12-27T02:19:40.602Z,98945.81
2022-12-27T02:22:22.402Z,98960.69
2022-12-27T02:25:14.166Z,98954.41
2022-12-27T02:28:27.113Z,98960.81
2022-12-27T02:31:07.321Z,98955.31
2022-12-27T02:33:41.992Z,98952.63
2022-12-27T02:36:12.350Z,98952.38
2022-12-27T02:38:47.983Z,98956.53
2022-12-27T02:41:15.861Z,98966.59
2022-12-27T02:43:42.461Z,98961.50
2022-12-27T02:46:21.699Z,98968.81
2022-12-27T02:48:56.898Z,98960.00
2022-12-27T02:51:46.425Z,98971.31
2022-12-27T02:54:34.444Z,98937.66
2022-12-27T02:57:34.760Z,98962.00
2022-12-27T03:00:13.356Z,98963.22
2022-12-27T03:02:50.857Z,98964.72
2022-12-27T03:05:36.136Z,98964.81
2022-12-27T03:08:20.047Z,98947.03
2022-12-27T03:10:55.414Z,98976.09
2022-12-27T03:13:34.316Z,98957.00
2022-12-27T03:16:09.572Z,98917.63
2022-12-27T03:18:59.583Z,98915.53
2022-12-27T03:21:31.770Z,98983.59
2022-12-27T03:23:59.584Z,98972.56
2022-12-27T03:26:28.320Z,98984.28
2022-12-27T03:28:58.026Z,98953.84
2022-12-27T03:31:33.779Z,98987.50
2022-12-27T03:34:06.189Z,98986.06
2022-12-27T03:36:34.453Z,98983.69
2022-12-27T03:39:06.898Z,98986.78
2022-12-27T03:41:42.400Z,98986.56
2022-12-27T03:44:10.664Z,98981.31
2022-12-27T03:46:37.611Z,98983.09
2022-12-27T03:49:19.349Z,98979.13
2022-12-27T03:52:04.458Z,98977.47
2022-12-27T03:54:35.278Z,98995.06
2022-12-27T03:57:08.002Z,98989.41
2022-12-27T03:59:34.913Z,98998.03
2022-12-27T04:02:02.174Z,98999.66
2022-12-27T04:04:28.914Z,98995.66
2022-12-27T04:06:55.527Z,98992.78
2022-12-27T04:09:22.730Z,98984.44
2022-12-27T04:11:49.308Z,98957.47
2022-12-27T04:14:16.579Z,98983.31
2022-12-27T04:16:43.256Z,98993.66
2022-12-27T04:19:11.576Z,98986.66
2022-12-27T04:21:38.189Z,98996.34
2022-12-27T04:24:08.339Z,98994.78
2022-12-27T04:26:34.938Z,98997.78
2022-12-27T04:29:01.656Z,98995.94
2022-12-27T04:31:28.387Z,98997.34
2022-12-27T04:33:55.147Z,98995.09
2022-12-27T04:36:21.729Z,98990.38
2022-12-27T04:38:48.741Z,98986.94
2022-12-27T04:41:15.324Z,98952.66
2022-12-27T04:43:42.007Z,98979.97
2022-12-27T04:46:22.439Z,98981.66
2022-12-27T04:48:49.149Z,98991.69
2022-12-27T04:51:15.802Z,98986.47
2022-12-27T04:53:42.486Z,98986.25
2022-12-27T04:56:09.132Z,98985.91
2022-12-27T04:58:35.898Z,98968.72
2022-12-27T05:01:06.703Z,98993.94
2022-12-27T05:03:38.393Z,98992.06
2022-12-27T05:06:06.701Z,99000.56
2022-12-27T05:08:33.492Z,98994.41
2022-12-27T05:11:00.136Z,99002.69
2022-12-27T05:13:26.975Z,99001.75
2022-12-27T05:15:53.624Z,99000.22
2022-12-27T05:18:20.332Z,98993.00
2022-12-27T05:20:47.319Z,98981.06
2022-12-27T05:23:14.019Z,98985.19
2022-12-27T05:25:45.568Z,98984.81
2022-12-27T05:28:13.176Z,98989.44
2022-12-27T05:30:42.366Z,98993.59
2022-12-27T05:33:09.175Z,98996.78
2022-12-27T05:35:36.214Z,99006.81
2022-12-27T05:38:03.598Z,99002.25
2022-12-27T05:40:30.416Z,99011.94
2022-12-27T05:43:01.621Z,99009.44
2022-12-27T05:45:29.223Z,99007.91
2022-12-27T05:47:56.076Z,99004.94
2022-12-27T05:50:22.901Z,99000.91
2022-12-27T05:52:50.738Z,99016.19
2022-12-27T05:55:17.721Z,99019.88
2022-12-27T05:57:44.356Z,99003.88
2022-12-27T06:00:14.520Z,99026.13
2022-12-27T06:02:42.033Z,99031.22
2022-12-27T06:05:10.480Z,99023.63
2022-12-27T06:07:37.892Z,99020.69
2022-12-27T06:10:07.425Z,99013.59
2022-12-27T06:12:34.157Z,99021.63
2022-12-27T06:15:00.863Z,99035.81
2022-12-27T06:17:27.695Z,99021.84
2022-12-27T06:19:57.291Z,99026.34
2022-12-27T06:22:24.527Z,99028.97
2022-12-27T06:24:51.244Z,99032.63
2022-12-27T06:27:18.018Z,99037.03
2022-12-27T06:29:44.691Z,99033.84
2022-12-27T06:32:11.354Z,99034.31
2022-12-27T06:34:38.189Z,99017.84
2022-12-27T06:37:04.822Z,99035.25
2022-12-27T06:39:31.523Z,99041.75
2022-12-27T06:41:58.307Z,98970.38
2022-12-27T06:44:25.795Z,99039.63
2022-12-27T06:46:52.459Z,99037.84
2022-12-27T06:49:19.272Z,99033.09
2022-12-27T06:51:45.899Z,99032.28
2022-12-27T06:54:12.582Z,99039.75
2022-12-27T06:56:39.263Z,99015.72
2022-12-27T06:59:06.064Z,99013.44
2022-12-27T07:01:32.780Z,99041.88
2022-12-27T07:04:00.459Z,99046.59
2022-12-27T07:06:29.652Z,99051.34
2022-12-27T07:08:57.140Z,99056.41
2022-12-27T07:11:25.482Z,99055.94
2022-12-27T07:13:54.705Z,99043.03
2022-12-27T07:16:24.165Z,99071.44
2022-12-27T07:18:52.564Z,99086.31
2022-12-27T07:21:22.044Z,99080.22
2022-12-27T07:23:49.331Z,99073.25
2022-12-27T07:26:21.996Z,99066.16
2022-12-27T07:28:49.264Z,99063.53
2022-12-27T07:31:18.444Z,99058.28
2022-12-27T07:33:45.796Z,99056.38
2022-12-27T07:36:16.402Z,99059.00
2022-12-27T07:38:43.242Z,99061.38
2022-12-27T07:41:11.596Z,99070.84
2022-12-27T07:43:38.662Z,99062.22
2022-12-27T07:46:07.625Z,99070.16
2022-12-27T07:48:34.751Z,99097.16
2022-12-27T07:51:01.692Z,99098.47
2022-12-27T07:53:28.520Z,99085.69
2022-12-27T07:55:55.211Z,99085.56
2022-12-27T07:58:22.200Z,99101.41
2022-12-27T08:00:50.762Z,99109.34
2022-12-27T08:03:19.252Z,99116.44
2022-12-27T08:05:47.360Z,99107.34
2022-12-27T08:08:16.832Z,99103.31
2022-12-27T08:10:43.708Z,99094.66
2022-12-27T08:13:10.393Z,99103.66
2022-12-27T08:15:38.849Z,99116.59
2022-12-27T08:18:05.682Z,99115.75
2022-12-27T08:20:32.326Z,99121.31
2022-12-27T08:22:59.242Z,99124.38
2022-12-27T08:25:26.155Z,99125.44
2022-12-27T08:27:52.892Z,99130.75
2022-12-27T08:30:19.767Z,99135.13
2022-12-27T08:32:46.496Z,99125.63
2022-12-27T08:35:50.286Z,99137.03
2022-12-27T08:38:03.217Z,99130.38
2022-12-27T08:40:29.831Z,99132.88
2022-12-27T08:42:56.562Z,99138.69
2022-12-27T08:45:23.244Z,99142.72
2022-12-27T08:47:50.031Z,99141.50
2022-12-27T08:50:16.691Z,99132.59
2022-12-27T08:52:43.496Z,99127.41
2022-12-27T08:55:10.083Z,99139.19
2022-12-27T08:57:37.429Z,99132.84
2022-12-27T09:00:04.683Z,99064.81
2022-12-27T09:02:31.435Z,99146.41
2022-12-27T09:04:58.062Z,99152.16
2022-12-27T09:07:24.875Z,99152.97
2022-12-27T09:09:51.472Z,99156.25
2022-12-27T09:12:18.133Z,99156.75
2022-12-27T09:14:44.783Z,99170.41
2022-12-27T09:17:11.520Z,99165.00
2022-12-27T09:19:38.119Z,99179.44
2022-12-27T09:22:04.892Z,99162.91
2022-12-27T09:24:31.512Z,99162.66
2022-12-27T09:26:58.185Z,99140.38
2022-12-27T09:29:24.945Z,99177.41
2022-12-27T09:31:51.590Z,99154.78
2022-12-27T09:34:18.222Z,99173.84
2022-12-27T09:36:44.947Z,99161.63
2022-12-27T09:39:11.582Z,99171.25
2022-12-27T09:45:11.426Z,99184.53
2022-12-27T09:47:46.600Z,99187.47
2022-12-27T09:50:20.545Z,99110.94
2022-12-27T09:53:03.031Z,99183.25
2022-12-27T09:55:34.427Z,99184.59
2022-12-27T09:58:25.111Z,99180.16
2022-12-27T10:00:52.189Z,99155.81
2022-12-27T10:03:25.276Z,99188.72
2022-12-27T10:05:59.483Z,99130.09
2022-12-27T10:08:45.302Z,99190.59
2022-12-27T10:11:17.947Z,99190.13
2022-12-27T10:13:53.443Z,99198.13
2022-12-27T10:16:28.839Z,99192.22
2022-12-27T10:19:04.579Z,99197.56
2022-12-27T10:21:37.356Z,99194.34
2022-12-27T10:24:24.105Z,99179.25
2022-12-27T10:26:54.649Z,99186.97
2022-12-27T10:29:23.991Z,99191.53
2022-12-27T10:31:51.653Z,99186.06
2022-12-27T10:34:20.177Z,99188.66
2022-12-27T10:36:48.389Z,99170.75
2022-12-27T10:39:29.647Z,99193.72
2022-12-27T10:42:30.882Z,99200.41
2022-12-27T10:45:28.077Z,99193.47
2022-12-27T10:48:12.222Z,99199.00
2022-12-27T10:50:43.365Z,99191.53
2022-12-27T10:53:30.068Z,99201.09
2022-12-27T10:56:29.076Z,99205.16
2022-12-27T10:59:15.943Z,99205.81
2022-12-27T11:01:44.558Z,99208.66
2022-12-27T11:04:20.131Z,99208.75
2022-12-27T11:06:50.525Z,99207.22
2022-12-27T11:09:20.051Z,99213.44
2022-12-27T11:11:46.796Z,99209.25
2022-12-27T11:14:19.093Z,99176.00
2022-12-27T11:16:46.679Z,99210.94
2022-12-27T11:19:26.561Z,99200.53
2022-12-27T11:21:55.402Z,99197.19
2022-12-27T11:24:22.609Z,99197.59
2022-12-27T11:26:56.755Z,99185.63
2022-12-27T11:29:26.387Z,99194.81
2022-12-27T11:31:54.660Z,99190.22
2022-12-27T11:34:30.211Z,99189.16
2022-12-27T11:37:06.766Z,99181.91
2022-12-27T11:39:48.503Z,99190.03
2022-12-27T11:42:24.591Z,99186.91
2022-12-27T11:45:09.745Z,99188.66
2022-12-27T11:47:45.832Z,99181.56
2022-12-27T11:50:44.687Z,99176.75
2022-12-27T11:53:30.159Z,99185.97
2022-12-27T11:56:21.416Z,99190.09
2022-12-27T11:58:59.969Z,99193.66
2022-12-27T12:01:51.602Z,99192.88
2022-12-27T12:04:33.383Z,99186.66
2022-12-27T12:07:22.531Z,99190.75
2022-12-27T12:10:29.947Z,99183.56
2022-12-27T12:13:08.836Z,99180.69
2022-12-27T12:16:07.603Z,99186.28
2022-12-27T12:18:46.813Z,99182.66
2022-12-27T12:21:40.806Z,99139.38
2022-12-27T12:24:46.368Z,99178.84
2022-12-27T12:27:36.856Z,99176.22
2022-12-27T12:30:31.326Z,99169.75
2022-12-27T12:33:12.912Z,99168.66
2022-12-27T12:35:45.854Z,99164.38
2022-12-27T12:38:21.098Z,99172.56
2022-12-27T12:41:09.420Z,99162.91
2022-12-27T12:44:01.228Z,99175.44
2022-12-27T12:46:54.157Z,99175.22
2022-12-27T12:49:41.079Z,99180.47
2022-12-27T12:52:15.038Z,99174.41
2022-12-27T12:55:02.830Z,99176.41
2022-12-27T12:57:43.184Z,99180.50
2022-12-27T13:00:28.722Z,99183.81
2022-12-27T13:03:30.694Z,99183.88
2022-12-27T13:06:18.477Z,99183.72
2022-12-27T13:09:00.878Z,99187.31
2022-12-27T13:12:04.240Z,99180.72
2022-12-27T13:14:49.092Z,99179.13
2022-12-27T13:17:40.622Z,99180.13
2022-12-27T13:20:35.063Z,99181.09
2022-12-27T13:23:26.426Z,99186.03
2022-12-27T13:26:20.881Z,99178.03
2022-12-27T13:29:15.404Z,99177.50
2022-12-27T13:31:52.929Z,99190.16
2022-12-27T13:34:34.447Z,99196.75
2022-12-27T13:37:31.677Z,99190.97
2022-12-27T13:40:18.307Z,99186.84
2022-12-27T13:43:11.605Z,99182.38
2022-12-27T13:45:56.714Z,99182.75
2022-12-27T13:49:00.860Z,99175.00
2022-12-27T13:51:41.572Z,99154.06
2022-12-27T13:54:36.119Z,99176.22
2022-12-27T13:57:24.422Z,99166.47
2022-12-27T14:00:16.385Z,99164.88
2022-12-27T14:03:20.147Z,99169.69
2022-12-27T14:06:16.157Z,99163.16
2022-12-27T14:09:05.437Z,99175.41
2022-12-27T14:11:50.923Z,99174.16
2022-12-27T14:14:19.876Z,99169.78
2022-12-27T14:17:15.787Z,99178.47
2022-12-27T14:19:45.500Z,99165.91
2022-12-27T14:22:27.121Z,99166.09
2022-12-27T14:25:46.827Z,99165.25
2022-12-27T14:28:19.353Z,99170.16
2022-12-27T14:31:13.985Z,99161.00
2022-12-27T14:33:40.632Z,99171.88
2022-12-27T14:36:33.011Z,99164.16
2022-12-27T14:39:18.483Z,99158.53
2022-12-27T14:42:04.299Z,99159.72
2022-12-27T14:44:50.023Z,99165.06
2022-12-27T14:47:50.484Z,99163.91
2022-12-27T14:50:44.739Z,99181.28
2022-12-27T14:53:42.717Z,99166.81
2022-12-27T14:56:23.303Z,99158.34
2022-12-27T14:59:20.348Z,99155.41
2022-12-27T15:02:09.043Z,99152.03
2022-12-27T15:04:35.716Z,99160.59
2022-12-27T15:07:23.836Z,99156.91
2022-12-27T15:10:09.074Z,99154.84
2022-12-27T15:12:48.394Z,99158.41
2022-12-27T15:15:27.125Z,99157.84
2022-12-27T15:18:02.724Z,99147.84
2022-12-27T15:20:38.374Z,99156.53
2022-12-27T15:23:38.777Z,99154.28
2022-12-27T15:26:30.208Z,99159.81
2022-12-27T15:29:03.638Z,99136.66
2022-12-27T15:31:40.889Z,99148.56
2022-12-27T15:34:29.359Z,99153.25
2022-12-27T15:36:56.178Z,99152.88
2022-12-27T15:39:34.800Z,99143.91
2022-12-27T15:42:44.817Z,99149.44
2022-12-27T15:45:36.911Z,99151.31
2022-12-27T15:48:41.611Z,99149.00
2022-12-27T15:51:36.689Z,99155.69
2022-12-27T15:54:09.836Z,99154.19
2022-12-27T15:56:48.894Z,99148.19
2022-12-27T15:59:34.260Z,99153.34
2022-12-27T16:02:24.494Z,99146.00
2022-12-27T16:04:57.224Z,99157.97
2022-12-27T16:07:43.777Z,99156.38
2022-12-27T16:10:32.110Z,99154.69
2022-12-27T16:13:04.567Z,99157.88
2022-12-27T16:15:34.060Z,99149.84
2022-12-27T16:18:02.826Z,99153.59
2022-12-27T16:20:31.236Z,99150.50
2022-12-27T16:22:57.787Z,99145.13
2022-12-27T16:25:40.191Z,99140.97
2022-12-27T16:28:27.638Z,99143.72
2022-12-27T16:31:06.930Z,99148.94
2022-12-27T16:33:37.976Z,99135.22
2022-12-27T16:36:36.044Z,99143.97
2022-12-27T16:39:11.581Z,99142.53
2022-12-27T16:41:53.285Z,99141.31
2022-12-27T16:44:26.146Z,99146.53
2022-12-27T16:47:05.549Z,99144.47
2022-12-27T16:49:32.156Z,99151.06
2022-12-27T16:52:13.753Z,99153.03
2022-12-27T16:55:21.843Z,99149.44
2022-12-27T16:57:50.266Z,99167.53
2022-12-27T17:00:35.837Z,99156.19
2022-12-27T17:03:21.412Z,99158.63
2022-12-27T17:06:30.068Z,99163.84
2022-12-27T17:08:37.053Z,99167.81
2022-12-27T17:11:27.595Z,99171.16
2022-12-27T17:14:03.349Z,99159.63
2022-12-27T17:16:41.653Z,99175.84
2022-12-27T17:19:19.329Z,99173.09
2022-12-27T17:21:47.873Z,99161.44
2022-12-27T17:24:19.871Z,99169.94
2022-12-27T17:26:52.745Z,99150.16
2022-12-27T17:29:50.296Z,99164.16
2022-12-27T17:32:36.309Z,99164.13
2022-12-27T17:35:15.230Z,99153.06
2022-12-27T17:38:09.446Z,99156.94
2022-12-27T17:40:46.454Z,99155.28
2022-12-27T17:43:27.732Z,99156.47
2022-12-27T17:46:09.732Z,99163.63
2022-12-27T17:48:37.267Z,99160.38
2022-12-27T17:51:20.573Z,99162.22
2022-12-27T17:53:49.930Z,99151.88
2022-12-27T17:56:22.066Z,99088.19
2022-12-27T17:58:48.875Z,99148.66
2022-12-27T18:01:15.870Z,99160.34
2022-12-27T18:03:47.081Z,99092.84
2022-12-27T18:06:19.333Z,99140.09
2022-12-27T18:08:48.389Z,99145.91
2022-12-27T18:11:15.886Z,99126.09
2022-12-27T18:13:54.789Z,99134.25
2022-12-27T18:16:30.369Z,99133.28
2022-12-27T18:18:57.468Z,99125.44
2022-12-27T18:21:29.142Z,99130.38
2022-12-27T18:23:56.586Z,99122.22
2022-12-27T18:26:36.584Z,99131.97
2022-12-27T18:29:03.900Z,99136.91
2022-12-27T18:31:59.956Z,99134.63
2022-12-27T18:34:58.446Z,99129.63
2022-12-27T18:37:26.931Z,99126.13
2022-12-27T18:39:59.616Z,99125.28
2022-12-27T18:42:42.440Z,99100.59
2022-12-27T18:45:22.606Z,99134.53
2022-12-27T18:47:52.588Z,99134.06
2022-12-27T18:50:24.701Z,99122.56
2022-12-27T18:53:22.271Z,99119.44
2022-12-27T18:56:01.234Z,99123.31
2022-12-27T18:58:28.377Z,99129.50
2022-12-27T19:00:55.011Z,99123.41
2022-12-27T19:03:21.752Z,99119.75
2022-12-27T19:06:03.697Z,99118.28
2022-12-27T19:08:37.097Z,99107.91
2022-12-27T19:11:05.592Z,99115.16
2022-12-27T19:13:49.981Z,99101.69
2022-12-27T19:16:28.322Z,99111.72
2022-12-27T19:18:58.175Z,99114.59
2022-12-27T19:21:39.814Z,99124.69
2022-12-27T19:24:24.853Z,99121.59
2022-12-27T19:26:52.203Z,99114.72
2022-12-27T19:29:22.398Z,99116.69
2022-12-27T19:32:02.435Z,99110.56
2022-12-27T19:34:33.274Z,99112.78
2022-12-27T19:37:00.013Z,99108.16
2022-12-27T19:39:26.606Z,99101.09
2022-12-27T19:42:00.969Z,99107.81
2022-12-27T19:44:28.791Z,99105.91
2022-12-27T19:46:55.557Z,99108.13
2022-12-27T19:52:17.372Z,99107.81
2022-12-27T19:54:44.151Z,99100.47
2022-12-27T19:57:11.759Z,99075.66
2022-12-27T19:59:38.867Z,99097.25
2022-12-27T20:02:06.186Z,99048.38
2022-12-27T20:04:33.058Z,99081.16
2022-12-27T20:07:00.765Z,99095.38
2022-12-27T20:09:27.932Z,99073.22
2022-12-27T20:11:54.746Z,99070.13
2022-12-27T20:14:21.657Z,99043.44
2022-12-27T20:16:48.510Z,99046.16
2022-12-27T20:19:16.289Z,99091.00
2022-12-27T20:21:42.976Z,99087.94
2022-12-27T20:24:10.930Z,99087.34
2022-12-27T20:26:38.057Z,99090.34
2022-12-27T20:29:05.431Z,99089.31
2022-12-27T20:31:32.314Z,99085.75
2022-12-27T20:33:59.714Z,99072.09
2022-12-27T20:36:26.353Z,99075.97
2022-12-27T20:38:53.121Z,99073.13
2022-12-27T20:41:21.322Z,99079.38
2022-12-27T20:43:48.075Z,99035.44
2022-12-27T20:46:18.326Z,99068.63
2022-12-27T20:48:46.328Z,99074.34
2022-12-27T20:51:18.878Z,99071.88
2022-12-27T20:53:47.273Z,99053.59
2022-12-27T20:56:14.596Z,99057.81
2022-12-27T20:58:42.539Z,99059.84
2022-12-27T21:01:15.929Z,99052.19
2022-12-27T21:03:44.928Z,99003.69
2022-12-27T21:06:15.087Z,99038.88
2022-12-27T21:08:47.735Z,99034.13
2022-12-27T21:11:22.662Z,99020.75
2022-12-27T21:13:50.126Z,99023.06
2022-12-27T21:16:19.527Z,98943.66
2022-12-27T21:18:47.896Z,99016.28
2022-12-27T21:21:20.523Z,99023.53
2022-12-27T21:23:47.737Z,99022.34
2022-12-27T21:26:17.268Z,99025.78
2022-12-27T21:28:44.737Z,99009.03
2022-12-27T21:31:12.756Z,99014.81
2022-12-27T21:33:40.106Z,99006.75
2022-12-27T21:36:11.007Z,99012.94
2022-12-27T21:38:37.881Z,99013.56
2022-12-27T21:41:15.433Z,99013.28
2022-12-27T21:43:43.243Z,98985.53
2022-12-27T21:46:18.590Z,99006.25
2022-12-27T21:48:46.174Z,99004.53
2022-12-27T21:51:18.119Z,98982.81
2022-12-27T21:53:45.071Z,98987.72
2022-12-27T21:56:13.227Z,98977.53
2022-12-27T21:58:40.972Z,98938.69
2022-12-27T22:01:16.868Z,98975.19
2022-12-27T22:03:47.183Z,98980.78
2022-12-27T22:06:15.443Z,98979.91
2022-12-27T22:08:43.949Z,98978.22
2022-12-27T22:11:11.441Z,98980.81
2022-12-27T22:13:38.162Z,98976.91
2022-12-27T22:16:07.813Z,98986.31
2022-12-27T22:18:36.624Z,98982.88
2022-12-27T22:21:06.376Z,98989.41
2022-12-27T22:23:35.462Z,98946.31
2022-12-27T22:26:02.488Z,98983.84
2022-12-27T22:28:29.129Z,98985.63
2022-12-27T22:30:56.146Z,98971.78
2022-12-27T22:33:23.174Z,98972.59
2022-12-27T22:35:49.831Z,98955.13
2022-12-27T22:38:16.651Z,98958.00
2022-12-27T22:40:46.790Z,98958.97
2022-12-27T22:43:14.001Z,98953.75
2022-12-27T22:45:41.898Z,98930.75
2022-12-27T22:48:08.775Z,98927.03
2022-12-27T22:50:37.862Z,98941.34
2022-12-27T22:53:05.253Z,98915.59
2022-12-27T22:55:31.922Z,98932.00
2022-12-27T22:57:58.595Z,98928.56
2022-12-27T23:00:25.775Z,98927.78
2022-12-27T23:02:52.627Z,98935.75
2022-12-27T23:05:19.303Z,98930.28
2022-12-27T23:08:04.817Z,98927.22
2022-12-27T23:10:33.116Z,98917.88
2022-12-27T23:13:00.201Z,98920.69
2022-12-27T23:15:26.893Z,98926.00
2022-12-27T23:17:53.462Z,98916.25
2022-12-27T23:20:20.185Z,98915.34
2022-12-27T23:22:46.768Z,98914.38
2022-12-27T23:25:13.624Z,98910.63
2022-12-27T23:27:40.306Z,98896.50
2022-12-27T23:30:07.455Z,98812.97
2022-12-27T23:32:34.075Z,98904.16
2022-12-27T23:35:00.805Z,98888.31
2022-12-27T23:37:27.485Z,98895.50
2022-12-27T23:39:54.141Z,98895.03
2022-12-27T23:42:20.835Z,98889.03
2022-12-27T23:44:47.619Z,98896.75
2022-12-27T23:47:14.214Z,98886.06
2022-12-27T23:49:41.042Z,98879.78
2022-12-27T23:52:07.639Z,98884.00
2022-12-27T23:54:34.310Z,98894.56
2022-12-27T23:57:19.604Z,98884.00
2022-12-27T23:59:47.731Z,98888.53
